TSF weather

Treviso-Sant'Angelo Airport
Treviso, Veneto, Italy

Public forecast

Using degrees Celsius for public forecast. Weather courtesy of forecast.io.

Current aviation weather report (METAR) for Treviso-Sant'Angelo Airport

Retrieved 2020/07/05 09:50 UTC (27 minutes ago):

LIPH 050950Z 18004KT 120V240 CAVOK 28/15 Q1017

Aviation forecast (TAF) for Treviso-Sant'Angelo Airport

Retrieved 2020/07/05 06:00 UTC (4 hours ago):

TAF LIPH 050500Z 0506/0606 VRB05KT CAVOK